Time;durP1;ratioP1;P1;durP2;ratioP2;P2;SDS_P1;SDS_P2;PMS_P1;PMS_P2;Temp;Humidity;BMP_temperature;BMP_pressure;BME280_temperature;BME280_humidity;BME280_pressure;Samples;Min_cycle;Max_cycle;Signal;HPM_P1;HPM_P2
2022/01/01 00:00:33;;;;;;;3.22;2.70;;;;;;;4.00;80.90;98349.83;1755570;81;20961;-39
2022/01/01 00:03:01;;;;;;;3.10;2.80;;;;;;;4.05;80.84;98347.47;1756536;81;20970;-39
2022/01/01 00:05:28;;;;;;;3.25;2.95;;;;;;;4.10;80.78;98348.56;1756510;81;21535;-39
2022/01/01 00:07:55;;;;;;;3.70;3.10;;;;;;;4.10;80.92;98347.23;1756521;81;21158;-39
2022/01/01 00:10:22;;;;;;;3.47;2.72;;;;;;;4.08;81.04;98346.77;1756437;81;21024;-39
2022/01/01 00:12:48;;;;;;;3.10;2.80;;;;;;;4.06;81.17;98340.43;1756660;81;21009;-39
2022/01/01 00:15:16;;;;;;;3.52;2.80;;;;;;;4.13;81.12;98337.14;1756538;81;21024;-39
2022/01/01 00:17:44;;;;;;;2.75;2.40;;;;;;;4.19;81.20;98334.45;1750451;81;21024;-39
2022/01/01 00:20:12;;;;;;;4.08;2.95;;;;;;;4.18;81.58;98331.54;1727719;81;21126;-39
2022/01/01 00:22:40;;;;;;;4.17;3.17;;;;;;;4.22;81.77;98333.75;1744552;81;21507;-39
2022/01/01 00:25:09;;;;;;;2.87;2.55;;;;;;;4.26;81.97;98331.97;1756436;81;20968;-41
2022/01/01 00:27:35;;;;;;;4.17;3.02;;;;;;;4.32;82.16;98323.87;1756427;81;21028;-41
2022/01/01 00:30:09;;;;;;;3.50;2.83;;;;;;;4.35;82.23;98320.52;1742805;81;21087;-40
2022/01/01 00:32:37;;;;;;;3.30;2.65;;;;;;;4.35;82.48;98317.28;1741244;81;22029;-41
2022/01/01 00:35:05;;;;;;;3.25;2.65;;;;;;;4.36;82.72;98320.72;1756616;81;20957;-41
2022/01/01 00:37:33;;;;;;;3.22;2.92;;;;;;;4.41;82.66;98315.66;1756523;81;21082;-41
2022/01/01 00:40:00;;;;;;;3.75;3.27;;;;;;;4.47;82.61;98320.44;1756044;81;20969;-41
2022/01/01 00:42:28;;;;;;;3.60;3.22;;;;;;;4.48;82.70;98313.17;1754427;81;21068;-41
2022/01/01 00:44:55;;;;;;;5.25;3.67;;;;;;;4.48;82.88;98311.27;1743128;81;21184;-41
2022/01/01 00:47:22;;;;;;;3.52;2.65;;;;;;;4.48;83.02;98311.83;1756085;81;20896;-41
2022/01/01 00:49:49;;;;;;;3.52;3.22;;;;;;;4.55;82.96;98308.00;1756486;81;21578;-41
2022/01/01 00:52:16;;;;;;;4.40;3.58;;;;;;;4.62;82.85;98314.31;1756102;81;21024;-41
2022/01/01 00:54:42;;;;;;;3.90;3.40;;;;;;;4.63;82.91;98310.52;1734006;81;20989;-41
2022/01/01 00:57:09;;;;;;;3.45;2.72;;;;;;;4.67;82.92;98307.91;1752075;81;21205;-41
2022/01/01 00:59:35;;;;;;;3.62;3.08;;;;;;;4.72;82.89;98301.72;1726333;82;21037;-41
2022/01/01 01:02:02;;;;;;;4.55;3.60;;;;;;;4.78;82.97;98306.28;1726349;83;20945;-41
2022/01/01 01:04:29;;;;;;;5.20;3.42;;;;;;;4.79;83.37;98296.52;1742724;81;20992;-41
2022/01/01 01:06:55;;;;;;;3.72;3.00;;;;;;;4.85;83.59;98302.97;1756501;81;21052;-41
2022/01/01 01:09:22;;;;;;;4.70;3.20;;;;;;;4.93;83.52;98292.63;1756544;81;21570;-41
2022/01/01 01:11:52;;;;;;;3.67;3.27;;;;;;;5.00;83.60;98284.72;1754887;81;20997;-41
2022/01/01 01:14:21;;;;;;;;;;;;;;;5.00;83.65;98289.53;1742480;81;21008;-41
2022/01/01 01:16:49;;;;;;;3.58;3.10;;;;;;;5.05;83.60;98285.80;1720313;83;20207;-42
2022/01/01 01:19:16;;;;;;;3.90;3.50;;;;;;;5.06;83.81;98273.94;1713255;83;21104;-41
2022/01/01 01:21:44;;;;;;;3.47;3.17;;;;;;;5.16;83.72;98274.75;1718167;82;21129;-41
2022/01/01 01:24:15;;;;;;;4.05;3.50;;;;;;;5.18;83.77;98273.84;1739313;82;20970;-42
2022/01/01 01:26:48;;;;;;;3.90;3.50;;;;;;;5.21;83.80;98273.91;1743047;82;21484;-42
2022/01/01 01:29:11;;;;;;;4.30;3.52;;;;;;;5.30;84.02;98273.72;1742218;81;21010;-41
2022/01/01 01:31:38;;;;;;;5.05;4.12;;;;;;;5.39;83.91;98260.08;1741485;82;21540;-41
2022/01/01 01:34:05;;;;;;;5.83;4.40;;;;;;;5.38;84.11;98257.95;1737287;82;21119;-41
2022/01/01 01:36:32;;;;;;;6.70;5.20;;;;;;;5.40;84.53;98262.42;1740161;81;21072;-41
2022/01/01 01:38:58;;;;;;;6.15;5.12;;;;;;;5.50;84.92;98259.74;1743061;81;21017;-41
2022/01/01 01:41:29;;;;;;;8.03;6.45;;;;;;;5.59;84.87;98254.38;1740417;81;20987;-41
2022/01/01 01:43:54;;;;;;;6.67;5.58;;;;;;;5.58;85.32;98242.63;1743142;81;21018;-42
2022/01/01 01:46:21;;;;;;;6.85;5.95;;;;;;;5.68;85.36;98249.56;1732807;82;21071;-41
2022/01/01 01:48:48;;;;;;;7.50;6.20;;;;;;;5.77;85.66;98246.66;1726434;82;21639;-41
2022/01/01 01:51:14;;;;;;;8.65;6.62;;;;;;;5.87;85.56;98242.64;1735962;82;21009;-41
2022/01/01 01:53:41;;;;;;;9.35;7.72;;;;;;;5.92;85.79;98239.67;1738389;82;21571;-39
2022/01/01 01:56:08;;;;;;;9.83;7.58;;;;;;;5.97;86.01;98232.09;1736494;82;21026;-39
2022/01/01 01:58:34;;;;;;;8.05;6.92;;;;;;;6.07;86.03;98236.11;1739576;82;21815;-39
2022/01/01 02:03:30;;;;;;;9.58;7.87;;;;;;;6.21;86.19;98236.38;1742961;82;21756;-39
2022/01/01 02:05:58;;;;;;;10.32;7.92;;;;;;;6.27;86.22;98232.25;1740144;82;21537;-39
2022/01/01 02:08:24;;;;;;;10.68;8.28;;;;;;;6.36;86.10;98237.40;1713445;83;21046;-39
2022/01/01 02:10:53;;;;;;;10.95;8.80;;;;;;;6.42;85.80;98238.09;1721241;82;21142;-39
2022/01/01 02:13:35;;;;;;;10.82;8.93;;;;;;;6.42;85.92;98238.66;1713203;82;20950;-39
2022/01/01 02:16:14;;;;;;;12.68;8.65;;;;;;;6.45;86.14;98223.91;1713355;82;21547;-38
2022/01/01 02:18:26;;;;;;;12.15;9.55;;;;;;;6.55;85.85;98232.73;1721082;81;21026;-39
2022/01/01 02:20:57;;;;;;;11.93;9.88;;;;;;;6.59;85.78;98225.27;1743011;82;21001;-39
2022/01/01 02:23:27;;;;;;;12.80;10.00;;;;;;;6.60;86.01;98230.88;1740352;81;21961;-39
2022/01/01 02:25:56;;;;;;;15.60;10.65;;;;;;;6.68;86.04;98232.56;1705500;82;20942;-39
2022/01/01 02:28:23;;;;;;;14.05;10.95;;;;;;;6.74;85.73;98221.11;1725392;82;21073;-39
2022/01/01 02:30:50;;;;;;;14.58;10.30;;;;;;;6.77;85.88;98228.48;1742998;82;21563;-39
2022/01/01 02:33:17;;;;;;;12.75;10.50;;;;;;;6.79;85.83;98235.61;1743257;82;21769;-40
2022/01/01 02:35:45;;;;;;;14.00;11.03;;;;;;;6.84;85.67;98224.53;1742544;82;21065;-39
2022/01/01 02:38:12;;;;;;;14.47;11.85;;;;;;;6.89;85.60;98226.14;1740874;82;21026;-39
2022/01/01 02:40:40;;;;;;;15.25;11.30;;;;;;;6.92;85.62;98230.82;1759681;81;21052;-39
2022/01/01 02:43:06;;;;;;;15.35;11.75;;;;;;;6.93;85.57;98225.05;1768787;81;21001;-39
2022/01/01 02:45:34;;;;;;;14.18;11.40;;;;;;;6.99;85.57;98218.78;1762560;81;21074;-39
2022/01/01 02:48:01;;;;;;;15.60;11.75;;;;;;;7.02;85.39;98222.09;1726765;81;21148;-39
2022/01/01 02:50:28;;;;;;;13.18;11.08;;;;;;;7.02;85.49;98217.30;1741094;82;20959;-39
2022/01/01 02:52:57;;;;;;;14.55;11.00;;;;;;;7.00;85.49;98214.95;1742888;81;21552;-39
2022/01/01 02:55:24;;;;;;;13.93;11.38;;;;;;;7.06;85.28;98228.33;1743136;82;21265;-39
2022/01/01 02:57:50;;;;;;;17.35;12.18;;;;;;;7.11;85.03;98213.20;1728720;81;21002;-39
2022/01/01 03:00:18;;;;;;;12.53;10.45;;;;;;;7.06;84.76;98209.47;1727276;82;21142;-39
2022/01/01 03:02:45;;;;;;;13.85;10.95;;;;;;;7.01;84.75;98205.73;1739536;82;20987;-39
2022/01/01 03:05:12;;;;;;;13.25;10.25;;;;;;;7.04;84.47;98206.34;1741357;82;21017;-39
2022/01/01 03:07:40;;;;;;;12.93;11.33;;;;;;;7.07;84.47;98204.27;1742238;81;21001;-39
2022/01/01 03:10:08;;;;;;;15.13;11.53;;;;;;;7.03;84.46;98207.48;1741194;82;21045;-39
2022/01/01 03:12:35;;;;;;;14.55;10.70;;;;;;;7.03;84.82;98210.74;1742847;82;21112;-39
2022/01/01 03:15:02;;;;;;;12.07;9.68;;;;;;;7.07;84.50;98218.34;1741738;82;20938;-39
2022/01/01 03:17:29;;;;;;;13.18;10.03;;;;;;;7.08;84.33;98211.22;1745497;82;21013;-39
2022/01/01 03:19:55;;;;;;;13.72;10.88;;;;;;;7.07;84.78;98215.04;1743064;82;21080;-39
2022/01/01 03:22:21;;;;;;;12.55;10.00;;;;;;;7.07;85.01;98213.70;1748965;82;21040;-39
2022/01/01 03:24:48;;;;;;;12.28;9.93;;;;;;;7.13;84.81;98218.98;1748005;82;21079;-39
2022/01/01 03:27:14;;;;;;;13.00;9.43;;;;;;;7.17;84.96;98221.72;1688779;83;21064;-39
2022/01/01 03:32:44;;;;;;;11.97;9.75;;;;;;;7.25;85.02;98209.34;1794111;79;23288;-39
2022/01/01 03:35:11;;;;;;;12.63;9.75;;;;;;;7.24;85.19;98224.53;1756122;81;20996;-40
2022/01/01 03:37:38;;;;;;;15.20;10.58;;;;;;;7.28;84.95;98219.95;1726684;83;21099;-41
2022/01/01 03:40:07;;;;;;;12.15;9.95;;;;;;;7.31;84.72;98229.44;1726727;83;20977;-39
2022/01/01 03:42:34;;;;;;;11.30;9.48;;;;;;;7.33;84.68;98233.13;1735511;81;25265;-39
2022/01/01 03:45:01;;;;;;;11.78;9.38;;;;;;;7.35;84.58;98224.89;1753923;81;20890;-39
2022/01/01 03:47:30;;;;;;;13.50;9.48;;;;;;;7.37;84.53;98219.89;1756718;81;21071;-39
2022/01/01 03:49:56;;;;;;;11.00;8.58;;;;;;;7.37;84.45;98236.07;1756790;81;21133;-41
2022/01/01 03:52:22;;;;;;;10.65;8.70;;;;;;;7.36;84.42;98234.51;1756842;81;20937;-41
2022/01/01 03:54:49;;;;;;;11.60;8.48;;;;;;;7.41;84.36;98236.11;1754687;81;21072;-41
2022/01/01 03:57:15;;;;;;;10.53;8.83;;;;;;;7.45;84.29;98236.17;1745324;81;21566;-41
2022/01/01 03:59:42;;;;;;;11.83;9.50;;;;;;;7.47;84.19;98250.05;1726657;83;21017;-41
2022/01/01 04:02:09;;;;;;;9.63;8.25;;;;;;;7.47;84.28;98241.97;1694990;83;21180;-41
2022/01/01 04:04:36;;;;;;;9.63;7.47;;;;;;;7.50;84.13;98260.12;1694144;83;21007;-41
2022/01/01 04:07:04;;;;;;;10.23;7.17;;;;;;;7.52;83.91;98259.95;1694742;84;21013;-42
2022/01/01 04:09:32;;;;;;;11.93;8.00;;;;;;;7.53;83.87;98263.44;1736715;82;21138;-41
2022/01/01 04:11:59;;;;;;;8.90;7.40;;;;;;;7.51;84.00;98264.36;1723349;83;21506;-41
2022/01/01 04:14:25;;;;;;;10.58;7.67;;;;;;;7.51;83.87;98257.05;1722450;83;21794;-41
2022/01/01 04:16:54;;;;;;;10.88;8.28;;;;;;;7.54;84.06;98266.34;1694241;83;20995;-41
2022/01/01 04:19:27;;;;;;;10.75;7.72;;;;;;;7.57;84.01;98272.34;1695029;83;20996;-41
2022/01/01 04:21:49;;;;;;;10.23;7.95;;;;;;;7.57;83.99;98272.34;1693122;84;20976;-42
2022/01/01 04:24:16;;;;;;;10.53;7.60;;;;;;;7.55;84.01;98275.39;1698991;83;21079;-42
2022/01/01 04:26:43;;;;;;;9.48;7.55;;;;;;;7.60;83.78;98271.63;1693424;83;21563;-41
2022/01/01 04:29:10;;;;;;;9.78;7.08;;;;;;;7.64;83.58;98270.53;1694136;84;21020;-39
2022/01/01 04:31:38;;;;;;;9.58;7.15;;;;;;;7.66;83.56;98276.89;1688091;84;21070;-39
2022/01/01 04:34:06;;;;;;;10.15;7.53;;;;;;;7.64;83.56;98268.41;1694090;84;21021;-39
2022/01/01 04:36:33;;;;;;;8.78;6.90;;;;;;;7.62;83.63;98271.45;1688983;83;21021;-39
2022/01/01 04:38:59;;;;;;;7.40;6.35;;;;;;;7.65;83.55;98272.06;1679306;85;22006;-39
2022/01/01 04:41:26;;;;;;;8.20;7.25;;;;;;;7.70;83.33;98275.79;1679238;85;21013;-39
2022/01/01 04:43:53;;;;;;;9.60;7.53;;;;;;;7.75;83.14;98277.39;1678926;85;21538;-39
2022/01/01 04:46:19;;;;;;;8.00;6.62;;;;;;;7.73;83.23;98278.34;1721629;82;20974;-39
2022/01/01 04:48:46;;;;;;;8.68;6.95;;;;;;;7.73;83.14;98276.42;1737460;82;21060;-39
2022/01/01 04:51:12;;;;;;;7.08;6.15;;;;;;;7.77;83.03;98273.77;1726983;82;21806;-39
2022/01/01 04:53:40;;;;;;;10.88;6.58;;;;;;;7.80;82.91;98278.41;1742968;81;20966;-39
2022/01/01 04:56:08;;;;;;;8.05;6.15;;;;;;;7.81;82.88;98286.15;1742332;82;21523;-39
2022/01/01 04:58:35;;;;;;;8.35;6.20;;;;;;;7.79;82.83;98294.42;1742399;82;20929;-39
2022/01/01 05:01:02;;;;;;;8.75;6.45;;;;;;;7.78;82.75;98302.30;1730858;82;21073;-39
2022/01/01 05:03:29;;;;;;;6.28;5.20;;;;;;;7.79;82.66;98306.56;1713693;82;21098;-39
2022/01/01 05:05:56;;;;;;;7.80;6.03;;;;;;;7.79;82.59;98303.86;1713458;82;21476;-39
2022/01/01 05:08:23;;;;;;;6.30;5.58;;;;;;;7.77;82.65;98310.19;1732089;82;20895;-39
2022/01/01 05:10:49;;;;;;;6.65;5.08;;;;;;;7.74;82.81;98314.97;1742801;81;21076;-41
2022/01/01 05:13:19;;;;;;;7.15;5.12;;;;;;;7.73;82.69;98308.02;1742220;82;20982;-41
2022/01/01 05:15:46;;;;;;;;;;;;;;;7.74;82.66;98317.67;1736975;81;21879;-42
2022/01/01 05:18:15;;;;;;;6.72;5.50;;;;;;;7.73;82.58;98326.91;1736269;81;20189;-41
2022/01/01 05:20:42;;;;;;;8.05;5.87;;;;;;;7.59;82.89;98334.80;1743075;81;21610;-42
2022/01/01 05:23:09;;;;;;;5.83;4.70;;;;;;;7.58;82.80;98327.84;1717843;81;21009;-42
2022/01/01 05:25:36;;;;;;;6.33;4.70;;;;;;;7.62;82.52;98341.59;1709924;82;21507;-42
2022/01/01 05:28:04;;;;;;;5.75;4.97;;;;;;;7.63;82.36;98343.72;1717676;82;21941;-40
2022/01/01 05:30:31;;;;;;;5.87;4.80;;;;;;;7.66;82.15;98338.93;1722621;82;21817;-39
2022/01/01 05:33:01;;;;;;;5.58;4.53;;;;;;;7.62;82.07;98338.11;1743144;82;21017;-39
2022/01/01 05:35:30;;;;;;;5.10;3.80;;;;;;;7.57;81.92;98341.12;1733503;80;21060;-40
2022/01/01 05:37:58;;;;;;;4.47;3.75;;;;;;;7.59;81.78;98346.94;1735129;80;21097;-41
2022/01/01 05:40:25;;;;;;;3.87;3.47;;;;;;;7.58;81.45;98354.81;1731369;80;21135;-40
2022/01/01 05:42:52;;;;;;;4.37;3.22;;;;;;;7.54;81.40;98358.04;1679943;84;20973;-40
2022/01/01 05:45:19;;;;;;;3.70;3.00;;;;;;;7.49;81.38;98359.12;1694040;84;21786;-40
2022/01/01 05:47:46;;;;;;;3.22;2.70;;;;;;;7.48;81.13;98367.00;1733029;82;21038;-40
2022/01/01 05:50:14;;;;;;;2.75;2.45;;;;;;;7.51;81.07;98374.92;1742885;82;20935;-40
2022/01/01 05:52:41;;;;;;;2.87;2.40;;;;;;;7.50;80.93;98381.48;1738549;81;21155;-40
2022/01/01 05:55:09;;;;;;;2.62;2.15;;;;;;;7.46;80.89;98380.06;1742975;82;21016;-40
2022/01/01 05:57:37;;;;;;;;;;;;;;;7.43;80.68;98376.19;1745683;81;21630;-40
2022/01/01 06:00:09;;;;;;;2.00;1.55;;;;;;;7.45;80.18;98385.27;1743315;80;20158;-40
2022/01/01 06:02:41;;;;;;;1.75;1.52;;;;;;;7.36;80.17;98398.98;1740086;80;21008;-40
2022/01/01 06:05:09;;;;;;;1.65;1.55;;;;;;;7.35;79.84;98403.41;1739141;80;21729;-40
2022/01/01 06:07:35;;;;;;;1.87;1.22;;;;;;;7.32;79.67;98406.80;1742372;82;20970;-40
2022/01/01 06:10:03;;;;;;;1.65;1.25;;;;;;;7.30;79.47;98407.19;1739125;82;21029;-40
2022/01/01 06:12:31;;;;;;;1.42;1.32;;;;;;;7.37;79.23;98417.28;1742155;80;20894;-40
2022/01/01 06:14:58;;;;;;;2.42;1.47;;;;;;;7.42;78.99;98415.07;1755314;81;21499;-40
2022/01/01 06:17:25;;;;;;;3.33;1.60;;;;;;;7.38;78.90;98416.94;1735641;81;21261;-40
2022/01/01 06:19:52;;;;;;;1.90;1.40;;;;;;;7.35;78.90;98427.10;1742391;82;20974;-40
2022/01/01 06:22:18;;;;;;;4.40;1.82;;;;;;;7.35;78.94;98429.80;1738686;82;21034;-40
2022/01/01 06:24:45;;;;;;;1.80;1.65;;;;;;;7.35;78.94;98441.15;1733833;82;21083;-40
2022/01/01 06:27:13;;;;;;;2.00;1.77;;;;;;;7.34;78.98;98453.84;1740687;82;21535;-40
2022/01/01 06:29:40;;;;;;;1.95;1.57;;;;;;;7.29;79.14;98451.45;1731745;82;21086;-40
2022/01/01 06:32:07;;;;;;;1.62;1.27;;;;;;;7.25;79.30;98451.96;1729463;81;21532;-40
2022/01/01 06:34:36;;;;;;;1.47;1.37;;;;;;;7.24;79.35;98455.80;1701629;83;21033;-40
2022/01/01 06:37:03;;;;;;;1.15;1.05;;;;;;;7.26;79.37;98457.55;1698521;83;21564;-40
2022/01/01 06:39:31;;;;;;;1.70;1.30;;;;;;;7.29;79.31;98467.63;1702766;83;21671;-39
2022/01/01 06:41:58;;;;;;;1.80;1.10;;;;;;;7.25;79.34;98480.27;1718001;82;21080;-40
2022/01/01 06:44:25;;;;;;;1.57;1.20;;;;;;;7.23;79.43;98482.53;1709935;82;21501;-40
2022/01/01 06:46:53;;;;;;;1.15;1.05;;;;;;;7.24;79.37;98489.48;1703486;83;21549;-40
2022/01/01 06:49:20;;;;;;;1.40;1.10;;;;;;;7.26;79.42;98493.94;1717352;83;20979;-40
2022/01/01 06:51:47;;;;;;;1.85;1.37;;;;;;;7.25;79.40;98503.19;1720683;83;20987;-40
2022/01/01 06:54:13;;;;;;;1.70;1.20;;;;;;;7.24;79.38;98497.58;1717460;82;21127;-40
2022/01/01 06:56:40;;;;;;;1.27;1.12;;;;;;;7.23;79.33;98508.14;1711212;82;21054;-40
2022/01/01 06:59:08;;;;;;;1.25;0.98;;;;;;;7.27;79.14;98515.72;1705407;83;21004;-40
2022/01/01 07:01:35;;;;;;;1.00;0.88;;;;;;;7.31;79.07;98513.86;1703014;83;21094;-40
2022/01/01 07:04:03;;;;;;;1.60;1.27;;;;;;;7.28;79.13;98517.85;1701436;83;21078;-40
2022/01/01 07:06:33;;;;;;;1.25;1.05;;;;;;;7.24;79.31;98519.14;1705642;83;21108;-40
2022/01/01 07:09:01;;;;;;;1.00;0.90;;;;;;;7.23;79.30;98524.31;1709251;81;21027;-40
2022/01/01 07:11:29;;;;;;;1.40;1.00;;;;;;;7.26;79.13;98528.23;1700666;83;21049;-40
2022/01/01 07:13:55;;;;;;;1.87;1.00;;;;;;;7.28;79.01;98528.07;1714767;82;20979;-40
2022/01/01 07:16:23;;;;;;;1.52;0.80;;;;;;;7.22;79.07;98532.19;1719104;83;22139;-40
2022/01/01 07:18:51;;;;;;;0.75;0.75;;;;;;;7.16;79.21;98535.55;1706386;83;21143;-40
2022/01/01 07:21:18;;;;;;;1.22;0.82;;;;;;;7.14;79.28;98542.63;1693557;83;20998;-40
2022/01/01 07:23:45;;;;;;;1.12;0.95;;;;;;;7.13;79.42;98547.80;1703039;83;20986;-40
2022/01/01 07:26:11;;;;;;;1.98;0.95;;;;;;;7.11;79.49;98553.35;1718453;83;21030;-40
2022/01/01 07:28:38;;;;;;;1.87;0.90;;;;;;;7.06;79.63;98554.42;1720551;83;21041;-40
2022/01/01 07:31:04;;;;;;;1.82;0.80;;;;;;;7.01;79.77;98558.75;1701004;82;21133;-40
2022/01/01 07:33:31;;;;;;;0.70;0.53;;;;;;;7.06;79.72;98558.47;1724238;82;20926;-40
2022/01/01 07:35:57;;;;;;;0.82;0.53;;;;;;;7.13;79.57;98566.67;1732637;81;20977;-40
2022/01/01 07:38:24;;;;;;;1.85;1.20;;;;;;;7.14;79.63;98566.89;1733581;80;21010;-40
2022/01/01 07:40:51;;;;;;;0.80;0.70;;;;;;;7.12;79.61;98563.76;1737947;81;21129;-40
2022/01/01 07:43:20;;;;;;;1.20;0.82;;;;;;;7.13;79.71;98561.28;1739968;81;21032;-40
2022/01/01 07:45:47;;;;;;;1.40;0.93;;;;;;;7.19;79.55;98561.78;1719969;81;21101;-40
2022/01/01 07:48:15;;;;;;;0.90;0.65;;;;;;;7.20;79.47;98569.52;1737363;82;21292;-40
2022/01/01 07:50:42;;;;;;;0.55;0.55;;;;;;;7.18;79.45;98562.34;1744854;80;21017;-40
2022/01/01 07:53:09;;;;;;;1.32;1.15;;;;;;;7.16;79.45;98556.55;1755503;80;20991;-40
2022/01/01 07:55:36;;;;;;;1.77;0.70;;;;;;;7.20;79.37;98562.00;1758247;81;21351;-40
2022/01/01 07:58:05;;;;;;;0.88;0.75;;;;;;;7.21;79.25;98568.95;1724852;81;21002;-40
2022/01/01 08:00:32;;;;;;;1.45;1.00;;;;;;;7.20;79.38;98572.22;1728113;80;21259;-40
2022/01/01 08:02:58;;;;;;;1.60;0.78;;;;;;;7.16;79.40;98571.38;1738337;80;21558;-40
2022/01/01 08:05:25;;;;;;;1.20;0.80;;;;;;;7.12;79.41;98579.93;1746531;80;21013;-39
2022/01/01 08:07:52;;;;;;;1.17;0.95;;;;;;;7.16;79.37;98580.02;1729481;82;21052;-40
2022/01/01 08:10:20;;;;;;;0.80;0.80;;;;;;;7.19;79.18;98587.39;1722194;82;21057;-40
2022/01/01 08:12:47;;;;;;;1.37;1.00;;;;;;;7.16;79.20;98588.11;1743750;80;20977;-40
2022/01/01 08:15:16;;;;;;;1.00;0.90;;;;;;;7.10;79.30;98593.00;1737716;80;21038;-40
2022/01/01 08:17:44;;;;;;;0.80;0.80;;;;;;;7.06;79.43;98588.11;1731901;82;21574;-40
2022/01/01 08:20:12;;;;;;;1.17;0.90;;;;;;;7.09;79.29;98582.00;1727267;81;21128;-40
2022/01/01 08:22:39;;;;;;;1.10;1.00;;;;;;;7.11;79.28;98582.44;1728518;80;20986;-40
2022/01/01 08:25:08;;;;;;;0.98;0.88;;;;;;;7.06;79.37;98581.38;1744669;80;20993;-40
2022/01/01 08:27:34;;;;;;;1.45;0.93;;;;;;;7.04;79.47;98584.19;1743087;82;20891;-40
2022/01/01 08:30:01;;;;;;;1.00;0.80;;;;;;;7.05;79.41;98591.93;1743264;82;21053;-40
2022/01/01 08:32:27;;;;;;;1.45;0.90;;;;;;;7.08;79.29;98589.86;1748535;80;21772;-40
2022/01/01 08:34:54;;;;;;;2.25;1.42;;;;;;;7.12;79.32;98592.63;1745254;80;21539;-40
2022/01/01 08:37:20;;;;;;;1.35;1.15;;;;;;;7.09;79.32;98594.12;1754973;80;20949;-40
2022/01/01 08:39:49;;;;;;;2.95;1.75;;;;;;;7.07;79.30;98597.73;1745631;81;20975;-40
2022/01/01 08:42:15;;;;;;;1.92;1.45;;;;;;;7.08;79.21;98594.47;1746619;80;21131;-40
2022/01/01 08:44:43;;;;;;;2.25;1.35;;;;;;;7.08;79.17;98594.47;1746843;81;21141;-40
2022/01/01 08:47:10;;;;;;;0.85;0.80;;;;;;;7.09;79.06;98598.73;1739990;80;21543;-40
2022/01/01 08:49:37;;;;;;;1.02;0.93;;;;;;;7.01;78.91;98595.69;1739609;80;21515;-40
2022/01/01 08:52:06;;;;;;;1.27;1.17;;;;;;;6.96;78.97;98600.23;1760148;80;21055;-39
2022/01/01 08:54:34;;;;;;;1.15;0.85;;;;;;;6.99;79.00;98599.52;1755327;80;21555;-40
2022/01/01 08:57:03;;;;;;;;;;;;;;;7.02;78.89;98608.04;1740283;81;20965;-39
2022/01/01 08:59:30;;;;;;;1.85;1.40;;;;;;;6.99;79.00;98607.59;1726319;83;20340;-39
2022/01/01 09:01:57;;;;;;;2.22;1.17;;;;;;;6.87;79.35;98611.75;1731684;80;21036;-39
2022/01/01 09:04:25;;;;;;;1.12;0.85;;;;;;;6.90;79.35;98611.63;1705124;83;21565;-40
2022/01/01 09:06:51;;;;;;;1.00;0.80;;;;;;;6.96;79.04;98610.23;1695109;83;21112;-39
2022/01/01 09:09:18;;;;;;;1.02;0.72;;;;;;;6.99;79.02;98613.55;1697085;83;21172;-39
2022/01/01 09:11:46;;;;;;;1.02;0.90;;;;;;;6.97;78.95;98623.33;1700949;83;21557;-39
2022/01/01 09:14:13;;;;;;;1.20;0.98;;;;;;;6.94;78.89;98624.61;1691722;84;21514;-39
2022/01/01 09:16:41;;;;;;;0.62;0.62;;;;;;;6.95;78.88;98627.52;1693329;83;21052;-39
2022/01/01 09:19:10;;;;;;;1.37;0.80;;;;;;;6.97;78.63;98626.61;1696908;84;21697;-39
2022/01/01 09:21:39;;;;;;;0.90;0.80;;;;;;;6.67;78.70;98585.16;1709782;82;21509;-39
2022/01/01 09:24:07;;;;;;;1.00;0.70;;;;;;;6.97;78.67;98621.23;1683064;83;21640;-39
2022/01/01 09:26:34;;;;;;;1.15;0.70;;;;;;;6.99;78.45;98625.68;1673905;85;21058;-39
2022/01/01 09:29:01;;;;;;;0.50;0.50;;;;;;;7.04;78.34;98626.75;1688931;82;21464;-39
2022/01/01 09:31:28;;;;;;;0.95;0.80;;;;;;;7.12;78.15;98625.75;1718793;83;21060;-40
2022/01/01 09:33:56;;;;;;;1.65;0.75;;;;;;;7.13;78.12;98632.70;1702335;82;21534;-39
2022/01/01 09:36:23;;;;;;;1.12;0.72;;;;;;;7.12;77.98;98623.05;1707322;83;21670;-39
2022/01/01 09:38:50;;;;;;;0.80;0.80;;;;;;;7.13;77.61;98630.58;1749101;82;20962;-40
2022/01/01 09:41:17;;;;;;;1.10;0.80;;;;;;;7.13;77.37;98631.92;1750073;82;20969;-40
2022/01/01 09:43:43;;;;;;;1.12;0.72;;;;;;;7.12;77.32;98635.19;1713970;83;21079;-40
2022/01/01 09:46:13;;;;;;;0.60;0.60;;;;;;;7.10;77.42;98631.30;1702879;83;21137;-40
2022/01/01 09:48:40;;;;;;;1.02;0.60;;;;;;;7.09;77.44;98630.52;1685980;85;21032;-39
2022/01/01 09:51:08;;;;;;;0.90;0.80;;;;;;;7.13;77.37;98636.75;1686136;85;20960;-39
2022/01/01 09:53:36;;;;;;;1.92;0.82;;;;;;;7.16;77.27;98633.37;1690841;83;21021;-40
2022/01/01 09:56:03;;;;;;;1.35;0.95;;;;;;;7.17;77.35;98637.60;1713549;83;21560;-40
2022/01/01 09:58:34;;;;;;;0.82;0.72;;;;;;;7.16;77.01;98637.98;1707384;84;21928;-40
2022/01/01 10:01:03;;;;;;;0.90;0.70;;;;;;;7.14;76.76;98636.19;1694858;84;21048;-39
2022/01/01 10:03:45;;;;;;;1.12;0.90;;;;;;;7.17;76.86;98637.60;1694864;84;21630;-40
2022/01/01 10:06:16;;;;;;;1.75;0.70;;;;;;;7.21;76.66;98631.71;1691925;82;21560;-40
2022/01/01 10:09:03;;;;;;;0.60;0.60;;;;;;;7.18;76.74;98631.08;1704159;84;21132;-40
2022/01/01 10:11:33;;;;;;;0.90;0.70;;;;;;;7.18;76.83;98625.69;1682423;82;22354;-39
2022/01/01 10:14:06;;;;;;;0.75;0.60;;;;;;;7.20;76.72;98626.69;1678985;84;21048;-40
2022/01/01 10:16:44;;;;;;;1.42;0.80;;;;;;;7.23;76.53;98625.41;1686743;83;20981;-40
2022/01/01 10:19:11;;;;;;;3.42;0.60;;;;;;;7.19;76.65;98624.56;1699215;84;21522;-40
2022/01/01 10:21:41;;;;;;;0.93;0.80;;;;;;;7.12;76.92;98627.09;1673620;84;21062;-40
2022/01/01 10:24:18;;;;;;;0.78;0.78;;;;;;;7.12;77.18;98622.27;1698273;84;21181;-40
2022/01/01 10:29:29;;;;;;;0.80;0.70;;;;;;;7.22;77.06;98624.41;1706428;84;20990;-40
2022/01/01 10:32:03;;;;;;;0.95;0.80;;;;;;;7.17;77.14;98628.73;1695181;82;21045;-40
2022/01/01 10:34:32;;;;;;;0.70;0.60;;;;;;;7.14;77.25;98634.84;1698910;83;21084;-40
2022/01/01 10:37:00;;;;;;;2.92;0.72;;;;;;;7.10;77.17;98636.13;1702257;83;21068;-40
2022/01/01 10:39:28;;;;;;;3.30;0.80;;;;;;;7.14;76.96;98633.49;1678786;85;21701;-40
2022/01/01 10:41:59;;;;;;;0.98;0.75;;;;;;;7.15;77.01;98635.84;1715912;82;21044;-40
2022/01/01 10:44:33;;;;;;;1.17;0.80;;;;;;;7.16;77.04;98641.45;1706081;83;21603;-40
2022/01/01 10:47:06;;;;;;;0.95;0.72;;;;;;;7.19;76.77;98647.47;1707083;84;21105;-40
2022/01/01 10:52:32;;;;;;;1.25;0.82;;;;;;;7.25;76.38;98643.38;1701537;82;21045;-39
2022/01/01 10:55:03;;;;;;;1.12;0.80;;;;;;;7.22;76.34;98641.36;1723664;80;20938;-40
2022/01/01 10:57:35;;;;;;;;;;;;;;;7.20;76.57;98642.30;1702063;82;21052;-40
2022/01/01 11:00:12;;;;;;;0.93;0.82;;;;;;;7.22;76.64;98626.54;1688409;84;20209;-40
2022/01/01 11:02:49;;;;;;;0.55;0.50;;;;;;;7.24;76.65;98626.98;1692181;83;21138;-40
2022/01/01 11:05:32;;;;;;;1.12;0.70;;;;;;;7.30;76.54;98636.34;1744987;80;20887;-40
2022/01/01 11:08:00;;;;;;;1.32;0.80;;;;;;;7.38;76.38;98631.86;1713437;83;20994;-40
2022/01/01 11:10:27;;;;;;;1.05;0.88;;;;;;;7.48;75.83;98630.51;1679686;84;20956;-40
2022/01/01 11:12:56;;;;;;;1.22;0.72;;;;;;;7.54;75.34;98631.79;1690858;83;21068;-40
2022/01/01 11:15:23;;;;;;;0.88;0.70;;;;;;;7.58;75.39;98627.23;1750009;80;21759;-40
2022/01/01 11:17:49;;;;;;;0.80;0.80;;;;;;;7.60;74.99;98631.72;1741435;81;21280;-40
2022/01/01 11:20:18;;;;;;;1.42;0.88;;;;;;;7.58;74.91;98633.98;1736559;81;21369;-40
2022/01/01 11:22:46;;;;;;;0.57;0.50;;;;;;;7.57;74.72;98635.11;1679074;84;21118;-40
2022/01/01 11:25:14;;;;;;;1.92;0.80;;;;;;;7.60;74.62;98629.02;1722182;82;21469;-40
2022/01/01 11:27:41;;;;;;;1.00;0.72;;;;;;;7.57;74.51;98619.71;1741584;81;21134;-40
2022/01/01 11:30:11;;;;;;;1.20;0.70;;;;;;;7.53;74.61;98617.52;1762579;80;21496;-40
2022/01/01 11:32:47;;;;;;;1.50;0.90;;;;;;;7.51;74.68;98619.78;1749213;80;20983;-40
2022/01/01 11:35:27;;;;;;;0.80;0.70;;;;;;;7.55;74.64;98621.22;1719861;82;21013;-40
2022/01/01 11:38:15;;;;;;;2.77;0.80;;;;;;;7.58;74.63;98617.23;1720393;83;21002;-40
2022/01/01 11:41:04;;;;;;;1.90;0.90;;;;;;;7.59;74.53;98620.71;1697622;83;21138;-40
2022/01/01 11:43:51;;;;;;;1.42;1.15;;;;;;;7.58;74.75;98616.45;1732111;80;21064;-40
2022/01/01 11:46:26;;;;;;;1.55;1.10;;;;;;;7.61;74.68;98621.91;1729289;80;20975;-40
2022/01/01 11:49:01;;;;;;;3.02;1.00;;;;;;;7.68;74.62;98609.13;1762395;80;20978;-40
2022/01/01 11:51:49;;;;;;;2.10;1.00;;;;;;;7.74;74.49;98614.45;1751040;81;21084;-40
2022/01/01 11:54:34;;;;;;;1.80;1.32;;;;;;;7.74;74.37;98605.78;1715039;83;21097;-40
2022/01/01 11:57:19;;;;;;;1.20;1.07;;;;;;;7.71;74.39;98611.09;1713501;83;20973;-40